KPHD

Harry Clever Field Airport

New Philadelphia, Ohio, USA
METAR KPHD 230453Z AUTO 23004KT 10SM SCT050 11/01 A3008 RMK AO2 SLP186 T01060011 401561011
Observed Flight Rules
Oct-23 @ 04:53 UTC (24 minutes ago) Visual Flight Rules
Wind Visibility Clouds
230° at 4 knots 10 miles
  • Scattered at 5,000' AGL
Temperatures Readings
Current 11°C / 52°F
Dewpoint 1°C / 34°F
Humidity 50%
Altimeter 30.08" Hg
Pressure 1018.6 hPa
Elevation 272
METAR KPHD 230453Z AUTO 23004KT 10SM SCT050 11/01 A3008 RMK AO2 SLP186 T01060011 401561011
Observed Flight Rules
Oct-23 @ 04:53 UTC
(24 minutes ago)
VFR
Wind Visibility
230° at 4 knots 10 miles
Clouds
  • Scattered at 5,000' AGL
Temperature Dewpoint
11°C / 52°F 1°C / 34°F
Humidity Altimeter Pressure
50% 30.08" Hg 1018.6 hPa